Weather at Terra Guindaldes Heliport

Public forecast

Using degrees Celsius for public forecast. Weather courtesy of forecast.io.

Closest aviation weather report (METAR) to Terra Guindaldes Heliport

Report is more than 6 hours old.

Closest report is Pirineus - la Seu d'Urgel Airport, 13.4 nm (24.8 km) SSW. Retrieved 2021/03/08 17:30 UTC (16 hours ago):

LESU 081730Z 04009KT 9999 BKN062 BKN071 11/M03 Q1013

Closest aviation forecast (TAF) to Terra Guindaldes Heliport

Forecast is more than 12 hours old.

Closest forecast is Pirineus - la Seu d'Urgel Airport, 13.4 nm (24.8 km) SSW. Retrieved 2021/03/08 15:00 UTC (18 hours ago):

TAF LESU 081400Z 0815/0915 VRB04KT 9999 SCT040 TX12/0914Z TN01/0906Z PROB30 TEMPO 0815/0819 VRB10KT 4000 TSRA BKN020 FEW040CB PROB30 TEMPO 0818/0909 0800 BCFG BKN004